createdAt,value
2022-10-17T00:01:35.301Z,14.05
2022-10-17T00:04:02.155Z,12.40
2022-10-17T00:06:28.980Z,9.98
2022-10-17T00:08:55.813Z,13.60
2022-10-17T00:11:24.170Z,9.93
2022-10-17T00:13:55.107Z,11.02
2022-10-17T00:16:34.410Z,11.00
2022-10-17T00:19:02.851Z,12.07
2022-10-17T00:21:29.632Z,6.50
2022-10-17T00:23:56.594Z,8.43
2022-10-17T00:26:23.639Z,10.35
2022-10-17T00:28:52.355Z,13.90
2022-10-17T00:31:20.771Z,11.43
2022-10-17T00:33:48.255Z,11.15
2022-10-17T00:36:18.914Z,13.27
2022-10-17T00:38:47.614Z,14.05
2022-10-17T00:41:16.932Z,14.57
2022-10-17T00:44:05.443Z,17.33
2022-10-17T00:46:34.891Z,15.93
2022-10-17T00:49:20.592Z,9.55
2022-10-17T00:51:51.168Z,10.20
2022-10-17T00:54:23.310Z,11.80
2022-10-17T00:56:51.489Z,10.93
2022-10-17T00:59:20.344Z,15.18
2022-10-17T01:02:08.930Z,14.20
2022-10-17T01:04:41.423Z,19.02
2022-10-17T01:07:09.654Z,15.80
2022-10-17T01:09:37.172Z,22.85
2022-10-17T01:12:27.975Z,12.35
2022-10-17T01:15:13.497Z,17.55
2022-10-17T01:17:40.115Z,12.30
2022-10-17T01:20:06.942Z,13.55
2022-10-17T01:22:50.646Z,15.75
2022-10-17T01:25:33.812Z,16.02
2022-10-17T01:28:15.409Z,9.20
2022-10-17T01:31:09.293Z,11.90
2022-10-17T01:33:54.678Z,17.83
2022-10-17T01:36:39.411Z,9.75
2022-10-17T01:39:39.077Z,11.90
2022-10-17T01:42:35.551Z,14.10
2022-10-17T01:47:35.443Z,12.38
2022-10-17T01:50:14.759Z,11.35
2022-10-17T01:53:05.251Z,8.52
2022-10-17T01:55:36.511Z,16.27
2022-10-17T01:58:12.447Z,13.20
2022-10-17T02:00:42.721Z,13.40
2022-10-17T02:03:14.363Z,22.35
2022-10-17T02:05:43.679Z,15.13
2022-10-17T02:08:11.502Z,13.77
2022-10-17T02:10:44.108Z,8.38
2022-10-17T02:13:32.864Z,9.70
2022-10-17T02:16:08.665Z,12.13
2022-10-17T02:18:55.281Z,10.63
2022-10-17T02:21:54.247Z,8.45
2022-10-17T02:24:48.506Z,12.43
2022-10-17T02:27:36.940Z,12.80
2022-10-17T02:30:15.868Z,18.00
2022-10-17T02:33:15.753Z,6.53
2022-10-17T02:35:50.914Z,9.98
2022-10-17T02:40:47.092Z,19.00
2022-10-17T02:43:14.681Z,7.70
2022-10-17T02:45:42.129Z,6.03
2022-10-17T02:48:19.174Z,15.55
2022-10-17T02:51:20.614Z,14.13
2022-10-17T02:53:55.717Z,9.43
2022-10-17T02:58:54.908Z,9.68
2022-10-17T03:01:22.049Z,9.02
2022-10-17T03:03:48.970Z,9.20
2022-10-17T03:06:16.538Z,17.25
2022-10-17T03:08:43.466Z,19.70
2022-10-17T03:11:10.385Z,4.55
2022-10-17T03:13:39.747Z,9.73
2022-10-17T03:16:06.893Z,10.32
2022-10-17T03:18:33.729Z,11.75
2022-10-17T03:21:00.542Z,8.18
2022-10-17T03:23:27.327Z,10.27
2022-10-17T03:25:54.123Z,12.88
2022-10-17T03:28:20.990Z,8.73
2022-10-17T03:30:48.086Z,8.90
2022-10-17T03:33:14.890Z,13.05
2022-10-17T03:35:41.769Z,8.65
2022-10-17T03:38:08.672Z,10.82
2022-10-17T03:40:35.328Z,9.02
2022-10-17T03:43:01.963Z,13.82
2022-10-17T03:45:28.608Z,14.43
2022-10-17T03:47:55.478Z,14.07
2022-10-17T03:50:22.371Z,13.48
2022-10-17T03:52:49.734Z,12.52
2022-10-17T03:55:17.310Z,13.48
2022-10-17T03:57:45.572Z,15.20
2022-10-17T04:00:13.336Z,12.07
2022-10-17T04:02:40.170Z,8.02
2022-10-17T04:05:07.708Z,12.55
2022-10-17T04:07:34.638Z,9.40
2022-10-17T04:10:01.472Z,10.02
2022-10-17T04:12:28.653Z,17.92
2022-10-17T04:14:55.695Z,11.63
2022-10-17T04:17:22.575Z,10.70
2022-10-17T04:19:49.758Z,12.82
2022-10-17T04:22:16.454Z,13.00
2022-10-17T04:24:43.307Z,12.52
2022-10-17T04:27:10.355Z,20.27
2022-10-17T04:29:37.052Z,18.85
2022-10-17T04:32:04.270Z,14.43
2022-10-17T04:34:31.252Z,13.85
2022-10-17T04:36:58.185Z,9.32
2022-10-17T04:39:25.078Z,18.90
2022-10-17T04:41:51.927Z,20.17
2022-10-17T04:44:18.703Z,14.35
2022-10-17T04:46:45.515Z,9.88
2022-10-17T04:49:12.353Z,7.43
2022-10-17T04:51:39.419Z,10.85
2022-10-17T04:54:06.619Z,9.38
2022-10-17T04:56:33.457Z,11.43
2022-10-17T04:59:00.284Z,10.38
2022-10-17T05:01:27.391Z,13.77
2022-10-17T05:03:54.454Z,11.52
2022-10-17T05:06:24.051Z,14.45
2022-10-17T05:08:51.552Z,19.98
2022-10-17T05:11:23.255Z,12.80
2022-10-17T05:13:54.874Z,14.02
2022-10-17T05:16:22.082Z,11.73
2022-10-17T05:18:52.957Z,14.40
2022-10-17T05:21:21.218Z,14.85
2022-10-17T05:23:48.158Z,20.35
2022-10-17T05:26:15.120Z,23.88
2022-10-17T05:28:42.191Z,12.63
2022-10-17T05:31:10.839Z,13.43
2022-10-17T05:33:38.601Z,10.57
2022-10-17T05:36:06.732Z,18.33
2022-10-17T05:38:33.664Z,12.27
2022-10-17T05:41:02.208Z,20.50
2022-10-17T05:43:29.877Z,16.73
2022-10-17T05:45:56.867Z,13.52
2022-10-17T05:48:24.508Z,14.75
2022-10-17T05:51:02.089Z,17.92
2022-10-17T05:53:33.366Z,18.92
2022-10-17T05:56:02.256Z,13.80
2022-10-17T05:58:49.295Z,16.65
2022-10-17T06:01:16.502Z,18.33
2022-10-17T06:03:43.441Z,18.08
2022-10-17T06:06:12.776Z,15.77
2022-10-17T06:08:39.854Z,22.10
2022-10-17T06:11:09.937Z,15.38
2022-10-17T06:13:38.383Z,13.55
2022-10-17T06:16:06.547Z,17.85
2022-10-17T06:18:36.002Z,9.38
2022-10-17T06:21:08.769Z,16.85
2022-10-17T06:23:35.939Z,9.00
2022-10-17T06:26:05.187Z,18.80
2022-10-17T06:28:32.349Z,18.88
2022-10-17T06:30:59.310Z,12.80
2022-10-17T06:33:26.200Z,12.00
2022-10-17T06:35:54.194Z,14.25
2022-10-17T06:38:21.876Z,12.88
2022-10-17T06:40:49.091Z,12.85
2022-10-17T06:43:18.415Z,10.80
2022-10-17T06:45:47.747Z,16.25
2022-10-17T06:48:15.071Z,12.43
2022-10-17T06:50:41.972Z,12.73
2022-10-17T06:53:08.711Z,16.83
2022-10-17T06:55:35.284Z,9.75
2022-10-17T06:58:02.188Z,8.30
2022-10-17T07:00:28.956Z,10.70
2022-10-17T07:02:55.792Z,11.50
2022-10-17T07:05:22.618Z,13.85
2022-10-17T07:07:51.701Z,17.73
2022-10-17T07:10:19.072Z,18.23
2022-10-17T07:12:46.145Z,13.60
2022-10-17T07:15:13.294Z,10.60
2022-10-17T07:17:40.198Z,11.05
2022-10-17T07:20:07.625Z,12.38
2022-10-17T07:22:34.714Z,10.80
2022-10-17T07:25:01.655Z,8.95
2022-10-17T07:27:28.679Z,8.27
2022-10-17T07:29:55.702Z,13.52
2022-10-17T07:32:22.567Z,17.17
2022-10-17T07:34:49.270Z,6.32
2022-10-17T07:37:16.011Z,8.52
2022-10-17T07:39:42.829Z,12.40
2022-10-17T07:42:10.446Z,9.23
2022-10-17T07:44:37.387Z,11.75
2022-10-17T07:47:04.498Z,9.65
2022-10-17T07:49:31.579Z,17.15
2022-10-17T07:51:58.406Z,8.13
2022-10-17T07:54:25.393Z,10.50
2022-10-17T07:56:52.256Z,11.35
2022-10-17T07:59:19.574Z,9.50
2022-10-17T08:01:46.503Z,14.35
2022-10-17T08:04:13.416Z,9.30
2022-10-17T08:06:40.123Z,7.47
2022-10-17T08:09:06.940Z,10.80
2022-10-17T08:11:33.765Z,10.10
2022-10-17T08:14:00.690Z,7.55
2022-10-17T08:16:27.770Z,11.18
2022-10-17T08:18:55.061Z,10.50
2022-10-17T08:21:21.862Z,8.80
2022-10-17T08:23:48.419Z,10.18
2022-10-17T08:26:17.474Z,9.68
2022-10-17T08:28:44.450Z,7.45
2022-10-17T08:31:18.265Z,11.45
2022-10-17T08:33:45.842Z,7.68
2022-10-17T08:36:14.891Z,9.02
2022-10-17T08:38:43.915Z,12.27
2022-10-17T08:41:25.315Z,8.23
2022-10-17T08:44:17.259Z,9.93
2022-10-17T08:46:47.376Z,9.38
2022-10-17T08:49:24.171Z,9.70
2022-10-17T08:51:59.078Z,10.48
2022-10-17T08:54:42.199Z,7.30
2022-10-17T08:57:15.519Z,6.25
2022-10-17T08:59:52.313Z,11.10
2022-10-17T09:03:02.801Z,9.07
2022-10-17T09:05:49.815Z,9.25
2022-10-17T09:08:40.232Z,12.90
2022-10-17T09:11:25.719Z,8.90
2022-10-17T09:14:03.446Z,8.13
2022-10-17T09:16:39.143Z,18.58
2022-10-17T09:19:28.687Z,4.75
2022-10-17T09:22:01.041Z,7.57
2022-10-17T09:24:38.831Z,8.00
2022-10-17T09:27:13.596Z,9.85
2022-10-17T09:29:43.713Z,5.88
2022-10-17T09:32:25.264Z,9.95
2022-10-17T09:34:53.911Z,4.55
2022-10-17T09:37:25.657Z,8.93
2022-10-17T09:39:52.722Z,7.03
2022-10-17T09:42:23.313Z,7.32
2022-10-17T09:45:05.756Z,8.18
2022-10-17T09:47:41.587Z,14.25
2022-10-17T09:50:25.590Z,8.05
2022-10-17T09:52:53.846Z,5.72
2022-10-17T09:55:28.320Z,9.80
2022-10-17T09:58:00.763Z,9.63
2022-10-17T10:00:49.076Z,6.55
2022-10-17T10:03:20.740Z,8.93
2022-10-17T10:06:13.077Z,9.13
2022-10-17T10:08:50.652Z,5.18
2022-10-17T10:11:18.787Z,5.32
2022-10-17T10:13:48.328Z,8.40
2022-10-17T10:16:31.521Z,8.98
2022-10-17T10:18:59.082Z,10.90
2022-10-17T10:21:27.700Z,10.13
2022-10-17T10:24:06.926Z,8.55
2022-10-17T10:26:41.594Z,6.25
2022-10-17T10:29:23.822Z,11.23
2022-10-17T10:31:51.501Z,9.50
2022-10-17T10:34:30.444Z,7.68
2022-10-17T10:37:02.420Z,8.80
2022-10-17T10:39:43.312Z,10.48
2022-10-17T10:42:27.135Z,9.10
2022-10-17T10:44:59.800Z,10.75
2022-10-17T10:47:31.520Z,7.05
2022-10-17T10:50:25.640Z,10.48
2022-10-17T10:53:02.600Z,10.30
2022-10-17T10:55:46.924Z,8.32
2022-10-17T10:58:47.939Z,11.82
2022-10-17T11:01:22.644Z,9.05
2022-10-17T11:03:57.910Z,8.15
2022-10-17T11:06:34.785Z,7.85
2022-10-17T11:09:04.130Z,6.55
2022-10-17T11:11:39.331Z,7.05
2022-10-17T11:16:45.921Z,11.65
2022-10-17T11:19:28.478Z,12.48
2022-10-17T11:22:11.597Z,20.02
2022-10-17T11:24:42.595Z,11.55
2022-10-17T11:27:09.857Z,8.02
2022-10-17T11:29:40.583Z,8.35
2022-10-17T11:32:13.995Z,10.25
2022-10-17T11:34:45.603Z,10.65
2022-10-17T11:37:35.258Z,17.50
2022-10-17T11:40:31.448Z,9.07
2022-10-17T11:43:07.135Z,14.07
2022-10-17T11:45:39.548Z,5.88
2022-10-17T11:48:21.569Z,10.05
2022-10-17T11:54:03.211Z,12.05
2022-10-17T11:56:43.773Z,10.88
2022-10-17T11:59:41.583Z,9.52
2022-10-17T12:02:39.508Z,11.23
2022-10-17T12:05:33.398Z,12.10
2022-10-17T12:08:10.319Z,12.15
2022-10-17T12:10:45.856Z,18.52
2022-10-17T12:13:47.289Z,14.48
2022-10-17T12:16:34.240Z,13.45
2022-10-17T12:19:01.134Z,14.98
2022-10-17T12:21:31.416Z,12.38
2022-10-17T12:23:59.096Z,12.05
2022-10-17T12:26:28.959Z,14.30
2022-10-17T12:28:57.374Z,16.48
2022-10-17T12:31:33.319Z,13.88
2022-10-17T12:34:03.187Z,14.00
2022-10-17T12:36:30.037Z,14.07
2022-10-17T12:38:56.714Z,11.98
2022-10-17T12:41:38.921Z,10.88
2022-10-17T12:44:15.157Z,16.45
2022-10-17T12:47:06.151Z,14.30
2022-10-17T12:49:45.853Z,6.93
2022-10-17T12:52:15.666Z,10.82
2022-10-17T12:55:12.511Z,17.58
2022-10-17T12:57:59.118Z,13.65
2022-10-17T13:00:37.385Z,14.20
2022-10-17T13:03:42.902Z,9.45
2022-10-17T13:06:19.731Z,13.75
2022-10-17T13:08:54.400Z,11.52
2022-10-17T13:11:25.490Z,14.50
2022-10-17T13:13:56.187Z,16.00
2022-10-17T13:16:35.454Z,12.77
2022-10-17T13:19:24.844Z,19.33
2022-10-17T13:21:59.938Z,10.80
2022-10-17T13:24:39.259Z,16.15
2022-10-17T13:27:21.748Z,12.27
2022-10-17T13:29:48.693Z,15.93
2022-10-17T13:32:15.883Z,18.75
2022-10-17T13:34:43.060Z,10.90
2022-10-17T13:37:14.755Z,12.25
2022-10-17T13:39:54.850Z,15.63
2022-10-17T13:42:29.706Z,13.55
2022-10-17T13:44:59.298Z,16.88
2022-10-17T13:47:29.309Z,21.98
2022-10-17T13:49:58.679Z,20.30
2022-10-17T13:52:28.602Z,23.15
2022-10-17T13:55:06.469Z,23.42
2022-10-17T13:57:33.929Z,16.02
2022-10-17T14:00:03.116Z,19.15
2022-10-17T14:02:32.727Z,15.75
2022-10-17T14:05:18.215Z,20.92
2022-10-17T14:08:17.798Z,13.90
2022-10-17T14:10:44.798Z,15.57
2022-10-17T14:13:20.779Z,21.60
2022-10-17T14:15:47.836Z,21.60
2022-10-17T14:18:19.870Z,11.93
2022-10-17T14:21:31.743Z,17.27
2022-10-17T14:23:41.110Z,19.42
2022-10-17T14:26:21.456Z,23.65
2022-10-17T14:29:06.925Z,21.38
2022-10-17T14:31:36.438Z,25.55
2022-10-17T14:34:05.628Z,21.33
2022-10-17T14:36:38.971Z,21.90
2022-10-17T14:39:13.391Z,16.85
2022-10-17T14:41:44.754Z,24.38
2022-10-17T14:44:26.131Z,12.00
2022-10-17T14:46:58.031Z,18.45
2022-10-17T14:49:35.022Z,18.48
2022-10-17T14:52:26.693Z,17.02
2022-10-17T14:54:53.907Z,19.77
2022-10-17T14:57:42.864Z,23.13
2022-10-17T15:00:15.270Z,15.93
2022-10-17T15:02:42.166Z,16.63
2022-10-17T15:05:13.022Z,15.15
2022-10-17T15:07:41.280Z,11.60
2022-10-17T15:10:27.266Z,17.70
2022-10-17T15:12:59.109Z,23.55
2022-10-17T15:15:32.148Z,18.25
2022-10-17T15:17:59.513Z,17.48
2022-10-17T15:20:28.287Z,19.88
2022-10-17T15:22:55.992Z,18.42
2022-10-17T15:25:24.118Z,25.48
2022-10-17T15:27:51.498Z,12.98
2022-10-17T15:30:29.759Z,14.93
2022-10-17T15:32:56.701Z,18.63
2022-10-17T15:35:23.842Z,16.95
2022-10-17T15:37:51.236Z,19.42
2022-10-17T15:40:22.219Z,17.83
2022-10-17T15:42:49.222Z,22.60
2022-10-17T15:45:18.691Z,14.35
2022-10-17T15:47:52.635Z,18.77
2022-10-17T15:50:20.414Z,16.87
2022-10-17T15:52:47.470Z,23.50
2022-10-17T15:55:14.453Z,22.45
2022-10-17T15:57:43.843Z,17.35
2022-10-17T16:00:18.651Z,20.02
2022-10-17T16:02:46.573Z,18.65
2022-10-17T16:05:25.809Z,14.60
2022-10-17T16:07:54.205Z,16.67
2022-10-17T16:10:22.659Z,23.05
2022-10-17T16:12:50.619Z,20.40
2022-10-17T16:15:23.081Z,20.52
2022-10-17T16:17:51.050Z,24.48
2022-10-17T16:20:17.829Z,20.38
2022-10-17T16:22:45.095Z,16.73
2022-10-17T16:25:32.335Z,13.90
2022-10-17T16:28:00.532Z,24.50
2022-10-17T16:30:30.106Z,21.95
2022-10-17T16:32:57.327Z,14.68
2022-10-17T16:35:33.201Z,16.38
2022-10-17T16:38:03.979Z,22.95
2022-10-17T16:40:30.620Z,17.85
2022-10-17T16:42:57.582Z,18.80
2022-10-17T16:45:24.313Z,25.15
2022-10-17T16:47:51.404Z,13.60
2022-10-17T16:50:18.584Z,11.55
2022-10-17T16:52:45.542Z,21.10
2022-10-17T16:55:12.418Z,23.25
2022-10-17T16:57:39.280Z,17.52
2022-10-17T17:00:07.341Z,18.80
2022-10-17T17:02:34.245Z,20.08
2022-10-17T17:05:01.157Z,16.35
2022-10-17T17:07:29.534Z,21.58
2022-10-17T17:09:56.678Z,18.08
2022-10-17T17:12:23.636Z,16.90
2022-10-17T17:14:51.206Z,21.10
2022-10-17T17:17:30.463Z,20.15
2022-10-17T17:20:06.608Z,12.70
2022-10-17T17:22:33.431Z,16.33
2022-10-17T17:25:00.250Z,16.13
2022-10-17T17:27:30.139Z,25.13
2022-10-17T17:29:56.990Z,9.27
2022-10-17T17:32:25.095Z,18.80
2022-10-17T17:34:51.943Z,15.55
2022-10-17T17:37:18.876Z,17.10
2022-10-17T17:39:45.873Z,21.52
2022-10-17T17:42:12.651Z,16.27
2022-10-17T17:44:39.524Z,17.30
2022-10-17T17:47:06.282Z,17.08
2022-10-17T17:49:33.130Z,25.73
2022-10-17T17:52:00.146Z,18.20
2022-10-17T17:54:26.936Z,20.45
2022-10-17T17:56:53.723Z,35.17
2022-10-17T17:59:20.559Z,17.42
2022-10-17T18:01:47.471Z,18.65
2022-10-17T18:04:16.620Z,15.82
2022-10-17T18:06:43.714Z,22.45
2022-10-17T18:09:11.135Z,25.70
2022-10-17T18:11:38.343Z,19.45
2022-10-17T18:14:07.993Z,21.92
2022-10-17T18:16:36.699Z,28.60
2022-10-17T18:19:09.580Z,25.25
2022-10-17T18:21:37.379Z,18.60
2022-10-17T18:24:05.103Z,25.30
2022-10-17T18:26:32.408Z,20.52
2022-10-17T18:28:59.183Z,30.63
2022-10-17T18:31:32.358Z,20.48
2022-10-17T18:34:02.656Z,23.50
2022-10-17T18:36:30.955Z,17.13
2022-10-17T18:38:58.959Z,21.35
2022-10-17T18:41:28.041Z,28.45
2022-10-17T18:43:55.727Z,31.95
2022-10-17T18:46:29.399Z,31.75
2022-10-17T18:48:56.823Z,25.90
2022-10-17T18:51:25.366Z,22.70
2022-10-17T18:53:58.782Z,15.40
2022-10-17T18:56:26.279Z,33.72
2022-10-17T18:58:53.186Z,27.08
2022-10-17T19:01:22.227Z,20.10
2022-10-17T19:03:51.346Z,27.08
2022-10-17T19:06:20.672Z,27.85
2022-10-17T19:08:47.640Z,26.45
2022-10-17T19:11:20.687Z,32.92
2022-10-17T19:13:50.328Z,21.23
2022-10-17T19:16:22.754Z,21.33
2022-10-17T19:18:51.677Z,31.17
2022-10-17T19:21:21.823Z,29.67
2022-10-17T19:23:51.364Z,31.80
2022-10-17T19:26:19.357Z,30.92
2022-10-17T19:28:47.774Z,24.25
2022-10-17T19:31:17.709Z,24.42
2022-10-17T19:33:45.012Z,27.08
2022-10-17T19:36:12.868Z,29.38
2022-10-17T19:38:40.220Z,24.13
2022-10-17T19:41:09.026Z,28.45
2022-10-17T19:43:37.650Z,25.55
2022-10-17T19:46:06.938Z,18.20
2022-10-17T19:48:36.848Z,20.00
2022-10-17T19:51:08.412Z,27.17
2022-10-17T19:53:35.725Z,13.73
2022-10-17T19:56:03.267Z,19.75
2022-10-17T19:58:30.176Z,29.13
2022-10-17T20:01:01.292Z,28.17
2022-10-17T20:03:28.667Z,16.05
2022-10-17T20:05:55.953Z,15.27
2022-10-17T20:08:23.346Z,29.10
2022-10-17T20:10:50.150Z,24.25
2022-10-17T20:13:16.985Z,27.13
2022-10-17T20:15:54.019Z,19.70
2022-10-17T20:18:20.910Z,20.70
2022-10-17T20:20:48.584Z,24.77
2022-10-17T20:23:15.586Z,13.48
2022-10-17T20:25:43.254Z,20.17
2022-10-17T20:28:10.134Z,9.27
2022-10-17T20:30:37.148Z,12.48
2022-10-17T20:33:04.005Z,12.05
2022-10-17T20:35:30.838Z,9.98
2022-10-17T20:37:57.658Z,9.32
2022-10-17T20:40:39.959Z,13.05
2022-10-17T20:43:08.160Z,13.15
2022-10-17T20:45:51.005Z,11.70
2022-10-17T20:48:18.982Z,15.45
2022-10-17T20:50:45.781Z,16.00
2022-10-17T20:56:05.482Z,14.85
2022-10-17T20:58:32.467Z,10.82
2022-10-17T21:00:59.181Z,13.63
2022-10-17T21:03:27.339Z,11.52
2022-10-17T21:05:54.142Z,17.80
2022-10-17T21:08:21.067Z,8.80
2022-10-17T21:10:48.035Z,14.60
2022-10-17T21:13:14.784Z,18.77
2022-10-17T21:15:41.591Z,15.15
2022-10-17T21:18:08.322Z,8.93
2022-10-17T21:20:35.166Z,7.53
2022-10-17T21:23:01.957Z,21.55
2022-10-17T21:25:28.803Z,14.68
2022-10-17T21:27:55.639Z,19.95
2022-10-17T21:30:24.626Z,15.02
2022-10-17T21:32:55.110Z,13.25
2022-10-17T21:35:22.192Z,21.00
2022-10-17T21:37:49.007Z,13.70
2022-10-17T21:40:16.020Z,7.53
2022-10-17T21:42:42.891Z,6.65
2022-10-17T21:45:15.596Z,8.75
2022-10-17T21:47:55.072Z,7.50
2022-10-17T21:50:30.088Z,7.93
2022-10-17T21:52:58.584Z,6.20
2022-10-17T21:55:25.239Z,8.35
2022-10-17T21:57:52.215Z,5.78
2022-10-17T22:00:19.220Z,8.50
2022-10-17T22:02:46.004Z,7.05
2022-10-17T22:05:12.882Z,6.53
2022-10-17T22:07:39.778Z,7.05
2022-10-17T22:10:06.757Z,7.07
2022-10-17T22:12:33.744Z,4.28
2022-10-17T22:15:00.643Z,5.38
2022-10-17T22:17:27.664Z,3.10
2022-10-17T22:19:54.663Z,10.63
2022-10-17T22:22:21.586Z,4.65
2022-10-17T22:24:48.254Z,6.93
2022-10-17T22:27:15.161Z,8.20
2022-10-17T22:29:42.042Z,12.18
2022-10-17T22:32:08.856Z,7.97
2022-10-17T22:34:35.634Z,5.85
2022-10-17T22:37:02.566Z,9.38
2022-10-17T22:39:29.406Z,11.35
2022-10-17T22:41:56.270Z,8.43
2022-10-17T22:44:22.978Z,10.20
2022-10-17T22:46:49.784Z,5.70
2022-10-17T22:49:16.633Z,9.82
2022-10-17T22:51:43.475Z,9.20
2022-10-17T22:54:10.298Z,5.07
2022-10-17T22:56:36.948Z,5.55
2022-10-17T22:59:03.692Z,10.45
2022-10-17T23:01:30.612Z,6.03
2022-10-17T23:03:57.588Z,4.32
2022-10-17T23:06:24.524Z,4.97
2022-10-17T23:08:52.402Z,9.55
2022-10-17T23:11:21.005Z,3.83
2022-10-17T23:13:48.067Z,4.97
2022-10-17T23:16:14.940Z,7.28
2022-10-17T23:18:41.738Z,7.63
2022-10-17T23:21:08.822Z,6.70
2022-10-17T23:23:36.503Z,6.13
2022-10-17T23:26:08.560Z,8.85
2022-10-17T23:28:35.997Z,10.65
2022-10-17T23:31:14.851Z,2.22
2022-10-17T23:33:42.189Z,2.75
2022-10-17T23:36:10.816Z,3.95
2022-10-17T23:38:38.442Z,11.15
2022-10-17T23:41:07.550Z,2.28
2022-10-17T23:43:34.746Z,4.22
2022-10-17T23:46:02.786Z,6.30
2022-10-17T23:48:30.365Z,10.20
2022-10-17T23:50:57.318Z,3.35
2022-10-17T23:53:24.839Z,1.65
2022-10-17T23:55:51.974Z,3.53
2022-10-17T23:58:18.993Z,1.42
